createdAt,value
2023-04-20T00:02:15.607Z,6.12
2023-04-20T00:05:17.391Z,6.15
2023-04-20T00:08:19.341Z,6.18
2023-04-20T00:11:21.118Z,6.21
2023-04-20T00:14:22.660Z,6.24
2023-04-20T00:17:24.330Z,6.25
2023-04-20T00:20:25.987Z,6.25
2023-04-20T00:23:27.578Z,6.27
2023-04-20T00:26:29.241Z,6.28
2023-04-20T00:29:30.806Z,6.28
2023-04-20T00:32:32.514Z,6.28
2023-04-20T00:35:34.091Z,6.27
2023-04-20T00:38:35.761Z,6.28
2023-04-20T00:41:37.639Z,6.26
2023-04-20T00:44:39.221Z,6.24
2023-04-20T00:47:40.857Z,6.23
2023-04-20T00:50:42.494Z,6.22
2023-04-20T00:53:44.961Z,6.20
2023-04-20T00:56:46.803Z,6.20
2023-04-20T00:59:48.537Z,6.15
2023-04-20T01:02:50.213Z,6.11
2023-04-20T01:05:51.905Z,6.09
2023-04-20T01:08:53.622Z,6.05
2023-04-20T01:11:55.457Z,6.02
2023-04-20T01:14:57.058Z,5.98
2023-04-20T01:17:58.668Z,5.96
2023-04-20T01:21:00.420Z,5.91
2023-04-20T01:24:02.016Z,5.86
2023-04-20T01:27:03.680Z,5.81
2023-04-20T01:30:05.925Z,5.77
2023-04-20T01:33:07.714Z,5.72
2023-04-20T01:36:10.030Z,5.69
2023-04-20T01:39:12.573Z,5.66
2023-04-20T01:42:14.172Z,5.64
2023-04-20T01:45:15.786Z,5.61
2023-04-20T01:48:17.372Z,5.58
2023-04-20T01:51:18.971Z,5.56
2023-04-20T01:54:20.546Z,5.54
2023-04-20T01:57:22.112Z,5.56
2023-04-20T02:00:23.757Z,5.58
2023-04-20T02:03:25.628Z,5.56
2023-04-20T02:06:27.431Z,5.52
2023-04-20T02:09:29.276Z,5.46
2023-04-20T02:12:30.958Z,5.42
2023-04-20T02:15:32.460Z,5.39
2023-04-20T02:18:34.103Z,5.33
2023-04-20T02:21:35.882Z,5.31
2023-04-20T02:24:37.454Z,5.29
2023-04-20T02:27:39.069Z,5.30
2023-04-20T02:30:40.807Z,5.30
2023-04-20T02:33:42.425Z,5.28
2023-04-20T02:36:44.021Z,5.27
2023-04-20T02:39:46.109Z,5.25
2023-04-20T02:42:47.663Z,5.22
2023-04-20T02:45:49.540Z,5.19
2023-04-20T02:48:51.131Z,5.15
2023-04-20T02:51:52.748Z,5.12
2023-04-20T02:54:54.330Z,5.10
2023-04-20T02:57:55.903Z,5.09
2023-04-20T03:01:01.347Z,5.08
2023-04-20T03:04:03.171Z,5.05
2023-04-20T03:07:04.980Z,5.02
2023-04-20T03:10:07.261Z,5.01
2023-04-20T03:13:09.273Z,4.98
2023-04-20T03:16:10.949Z,4.96
2023-04-20T03:19:12.503Z,4.95
2023-04-20T03:22:14.122Z,4.95
2023-04-20T03:25:16.313Z,4.96
2023-04-20T03:28:17.909Z,4.96
2023-04-20T03:31:19.509Z,4.94
2023-04-20T03:34:21.867Z,4.93
2023-04-20T03:37:23.630Z,4.93
2023-04-20T03:40:25.428Z,4.93
2023-04-20T03:43:26.976Z,4.91
2023-04-20T03:46:28.682Z,4.90
2023-04-20T03:49:30.902Z,4.91
2023-04-20T03:52:32.524Z,4.92
2023-04-20T03:55:34.090Z,4.91
2023-04-20T03:58:35.650Z,4.93
2023-04-20T04:01:39.228Z,4.94
2023-04-20T04:04:41.473Z,4.96
2023-04-20T04:07:43.074Z,4.95
2023-04-20T04:10:44.615Z,4.93
2023-04-20T04:13:46.381Z,4.91
2023-04-20T04:16:47.974Z,4.88
2023-04-20T04:19:49.599Z,4.82
2023-04-20T04:22:52.137Z,4.76
2023-04-20T04:25:54.181Z,4.70
2023-04-20T04:28:56.158Z,4.65
2023-04-20T04:31:58.543Z,4.60
2023-04-20T04:35:01.349Z,4.57
2023-04-20T04:38:02.924Z,4.54
2023-04-20T04:41:04.668Z,4.54
2023-04-20T04:44:06.209Z,4.50
2023-04-20T04:47:09.558Z,4.46
2023-04-20T04:50:11.907Z,4.40
2023-04-20T04:53:13.489Z,4.32
2023-04-20T04:56:15.081Z,4.25
2023-04-20T04:59:16.881Z,4.17
2023-04-20T05:02:18.835Z,4.11
2023-04-20T05:05:20.452Z,4.05
2023-04-20T05:08:24.423Z,4.00
2023-04-20T05:11:25.989Z,3.99
2023-04-20T05:14:27.565Z,3.98
2023-04-20T05:17:29.252Z,3.97
2023-04-20T05:20:30.821Z,3.96
2023-04-20T05:23:32.436Z,3.92
2023-04-20T05:26:33.992Z,3.88
2023-04-20T05:29:35.725Z,4.00
2023-04-20T05:32:37.296Z,4.17
2023-04-20T05:35:41.087Z,4.13
2023-04-20T05:38:42.647Z,4.07
2023-04-20T05:41:44.880Z,4.02
2023-04-20T05:44:46.555Z,3.97
2023-04-20T05:47:58.486Z,3.94
2023-04-20T05:51:00.652Z,3.92
2023-04-20T05:54:03.066Z,3.89
2023-04-20T05:57:05.841Z,3.89
2023-04-20T06:00:10.273Z,3.88
2023-04-20T06:03:15.370Z,3.86
2023-04-20T06:06:17.177Z,3.85
2023-04-20T06:09:19.265Z,3.83
2023-04-20T06:12:20.967Z,3.80
2023-04-20T06:15:22.545Z,3.77
2023-04-20T06:18:24.135Z,3.72
2023-04-20T06:21:27.369Z,3.71
2023-04-20T06:24:28.977Z,3.68
2023-04-20T06:27:30.494Z,3.69
2023-04-20T06:30:35.538Z,3.71
2023-04-20T06:33:37.151Z,3.69
2023-04-20T06:36:42.544Z,3.69
2023-04-20T06:39:44.153Z,3.69
2023-04-20T06:42:45.696Z,3.68
2023-04-20T06:45:47.256Z,3.70
2023-04-20T06:48:48.782Z,3.73
2023-04-20T06:51:50.435Z,3.73
2023-04-20T06:54:52.241Z,3.74
2023-04-20T06:57:53.810Z,3.76
2023-04-20T07:00:55.416Z,3.78
2023-04-20T07:03:57.147Z,3.78
2023-04-20T07:06:58.938Z,3.78
2023-04-20T07:10:00.575Z,3.81
2023-04-20T07:13:02.121Z,3.83
2023-04-20T07:16:03.841Z,3.85
2023-04-20T07:19:05.669Z,3.89
2023-04-20T07:22:07.510Z,3.88
2023-04-20T07:25:10.837Z,3.92
2023-04-20T07:28:12.519Z,3.95
2023-04-20T07:31:14.058Z,3.97
2023-04-20T07:34:15.792Z,3.98
2023-04-20T07:37:17.478Z,4.00
2023-04-20T07:40:19.091Z,4.03
2023-04-20T07:43:20.785Z,4.08
2023-04-20T07:46:23.260Z,4.13
2023-04-20T07:49:25.913Z,4.15
2023-04-20T07:52:27.497Z,4.20
2023-04-20T07:55:29.160Z,4.21
2023-04-20T07:58:30.757Z,4.20
2023-04-20T08:01:32.338Z,4.22
2023-04-20T08:04:34.215Z,4.23
2023-04-20T08:07:36.195Z,4.26
2023-04-20T08:10:38.137Z,4.29
2023-04-20T08:13:41.921Z,4.33
2023-04-20T08:16:43.500Z,4.37
2023-04-20T08:19:46.102Z,4.38
2023-04-20T08:22:49.308Z,4.39
2023-04-20T08:25:51.047Z,4.40
2023-04-20T08:28:52.669Z,4.41
2023-04-20T08:31:54.358Z,4.42
2023-04-20T08:34:56.291Z,4.41
2023-04-20T08:37:57.810Z,4.42
2023-04-20T08:40:59.413Z,4.41
2023-04-20T08:44:00.998Z,4.39
2023-04-20T08:47:03.626Z,4.42
2023-04-20T08:50:06.198Z,4.41
2023-04-20T08:53:09.651Z,4.44
2023-04-20T08:56:11.530Z,4.62
2023-04-20T08:59:14.266Z,4.63
2023-04-20T09:02:15.971Z,4.58
2023-04-20T09:05:26.187Z,4.52
2023-04-20T09:08:41.740Z,4.50
2023-04-20T09:11:43.333Z,4.47
2023-04-20T09:14:49.083Z,4.48
2023-04-20T09:17:50.849Z,4.49
2023-04-20T09:20:52.482Z,4.47
2023-04-20T09:24:08.321Z,4.46
2023-04-20T09:27:17.680Z,4.46
2023-04-20T09:30:19.384Z,4.46
2023-04-20T09:33:28.455Z,4.47
2023-04-20T09:36:46.555Z,4.47
2023-04-20T09:39:48.740Z,4.50
2023-04-20T09:42:52.955Z,4.49
2023-04-20T09:45:56.325Z,4.49
2023-04-20T09:49:00.489Z,4.49
2023-04-20T09:52:03.898Z,4.49
2023-04-20T09:55:09.283Z,4.51
2023-04-20T09:58:11.109Z,4.55
2023-04-20T10:01:12.922Z,4.58
2023-04-20T10:04:15.007Z,4.61
2023-04-20T10:07:24.088Z,4.63
2023-04-20T10:10:25.741Z,4.66
2023-04-20T10:13:33.926Z,4.66
2023-04-20T10:16:35.575Z,4.67
2023-04-20T10:19:37.675Z,4.68
2023-04-20T10:22:39.225Z,4.70
2023-04-20T10:25:41.272Z,4.72
2023-04-20T10:28:45.014Z,4.72
2023-04-20T10:31:46.672Z,4.77
2023-04-20T10:34:48.200Z,4.80
2023-04-20T10:37:51.467Z,4.82
2023-04-20T10:40:53.092Z,4.86
2023-04-20T10:43:54.723Z,4.87
2023-04-20T10:46:57.127Z,4.90
2023-04-20T10:50:15.676Z,4.94
2023-04-20T10:53:21.737Z,4.98
2023-04-20T10:56:23.330Z,5.00
2023-04-20T10:59:25.219Z,5.03
2023-04-20T11:02:28.233Z,5.06
2023-04-20T11:05:30.111Z,5.11
2023-04-20T11:08:39.731Z,5.19
2023-04-20T11:11:41.312Z,5.29
2023-04-20T11:15:00.341Z,5.43
2023-04-20T11:18:09.973Z,5.53
2023-04-20T11:21:11.857Z,5.61
2023-04-20T11:24:24.542Z,5.65
2023-04-20T11:27:26.087Z,5.69
2023-04-20T11:30:41.720Z,5.83
2023-04-20T11:33:44.028Z,6.05
2023-04-20T11:36:46.424Z,6.32
2023-04-20T11:39:48.011Z,6.59
2023-04-20T11:42:49.578Z,6.73
2023-04-20T11:45:51.215Z,6.83
2023-04-20T11:48:53.019Z,6.94
2023-04-20T11:51:54.942Z,7.04
2023-04-20T11:54:56.529Z,7.09
2023-04-20T11:57:58.044Z,7.17
2023-04-20T12:01:00.286Z,7.21
2023-04-20T12:04:02.470Z,7.20
2023-04-20T12:07:04.310Z,7.22
2023-04-20T12:10:07.966Z,7.34
2023-04-20T12:13:09.531Z,7.50
2023-04-20T12:16:12.571Z,7.61
2023-04-20T12:19:14.145Z,7.71
2023-04-20T12:22:15.901Z,7.80
2023-04-20T12:25:17.455Z,7.90
2023-04-20T12:28:19.140Z,8.00
2023-04-20T12:31:21.088Z,8.05
2023-04-20T12:34:22.678Z,8.02
2023-04-20T12:37:24.260Z,8.02
2023-04-20T12:40:25.971Z,8.01
2023-04-20T12:43:28.784Z,7.98
2023-04-20T12:46:30.429Z,7.99
2023-04-20T12:49:33.633Z,8.10
2023-04-20T12:52:35.462Z,8.22
2023-04-20T12:55:37.026Z,8.27
2023-04-20T12:58:38.795Z,8.23
2023-04-20T13:01:40.477Z,8.22
2023-04-20T13:04:42.091Z,8.14
2023-04-20T13:07:43.741Z,8.04
2023-04-20T13:10:45.886Z,7.95
2023-04-20T13:13:47.450Z,7.87
2023-04-20T13:16:49.241Z,7.84
2023-04-20T13:19:52.000Z,7.79
2023-04-20T13:22:57.809Z,7.71
2023-04-20T13:26:01.699Z,7.69
2023-04-20T13:29:03.580Z,7.69
2023-04-20T13:32:05.501Z,7.69
2023-04-20T13:35:07.763Z,7.66
2023-04-20T13:38:09.312Z,7.68
2023-04-20T13:41:10.997Z,7.69
2023-04-20T13:44:16.305Z,7.73
2023-04-20T13:47:19.598Z,7.76
2023-04-20T13:50:21.630Z,7.79
2023-04-20T13:53:23.735Z,7.77
2023-04-20T13:56:25.486Z,7.74
2023-04-20T13:59:27.828Z,7.72
2023-04-20T14:02:30.143Z,7.67
2023-04-20T14:05:32.062Z,7.65
2023-04-20T14:08:33.876Z,7.65
2023-04-20T14:11:35.787Z,7.65
2023-04-20T14:14:38.106Z,7.62
2023-04-20T14:17:40.188Z,7.58
2023-04-20T14:20:42.652Z,7.59
2023-04-20T14:23:44.891Z,7.58
2023-04-20T14:26:46.558Z,7.55
2023-04-20T14:29:48.719Z,7.51
2023-04-20T14:32:58.991Z,7.42
2023-04-20T14:36:01.215Z,7.37
2023-04-20T14:39:03.846Z,7.32
2023-04-20T14:42:06.735Z,7.28
2023-04-20T14:45:10.056Z,7.25
2023-04-20T14:48:13.444Z,7.21
2023-04-20T14:51:16.663Z,7.16
2023-04-20T14:54:19.546Z,7.11
2023-04-20T14:57:21.797Z,7.08
2023-04-20T15:00:24.929Z,7.06
2023-04-20T15:03:26.810Z,7.04
2023-04-20T15:06:28.791Z,7.03
2023-04-20T15:09:30.651Z,7.01
2023-04-20T15:12:32.301Z,6.96
2023-04-20T15:15:46.903Z,6.92
2023-04-20T15:18:52.028Z,6.90
2023-04-20T15:21:53.582Z,6.88
2023-04-20T15:24:55.291Z,6.88
2023-04-20T15:27:56.890Z,6.88
2023-04-20T15:30:58.430Z,6.85
2023-04-20T15:34:00.548Z,6.84
2023-04-20T15:37:02.115Z,6.82
2023-04-20T15:40:04.036Z,6.80
2023-04-20T15:43:06.406Z,6.82
2023-04-20T15:46:08.038Z,6.89
2023-04-20T15:49:09.597Z,6.90
2023-04-20T15:52:11.296Z,6.92
2023-04-20T15:55:12.917Z,6.92
2023-04-20T15:58:14.547Z,6.96
2023-04-20T16:01:17.823Z,6.98
2023-04-20T16:04:20.018Z,7.01
2023-04-20T16:07:22.003Z,7.03
2023-04-20T16:10:23.770Z,7.05
2023-04-20T16:13:26.289Z,7.10
2023-04-20T16:16:27.984Z,7.12
2023-04-20T16:19:31.264Z,7.17
2023-04-20T16:22:32.812Z,7.20
2023-04-20T16:25:34.599Z,7.23
2023-04-20T16:28:36.297Z,7.35
2023-04-20T16:31:38.033Z,7.51
2023-04-20T16:34:39.602Z,7.54
2023-04-20T16:37:41.179Z,7.55
2023-04-20T16:40:43.528Z,7.56
2023-04-20T16:43:45.281Z,7.57
2023-04-20T16:46:52.781Z,7.56
2023-04-20T16:49:54.376Z,7.58
2023-04-20T16:52:55.917Z,7.58
2023-04-20T16:56:00.703Z,7.58
2023-04-20T16:59:02.635Z,7.57
2023-04-20T17:02:04.406Z,7.56
2023-04-20T17:05:07.290Z,7.57
2023-04-20T17:08:09.214Z,7.58
2023-04-20T17:11:11.060Z,7.61
2023-04-20T17:14:12.640Z,7.63
2023-04-20T17:17:14.281Z,7.64
2023-04-20T17:20:16.150Z,7.66
2023-04-20T17:23:18.803Z,7.67
2023-04-20T17:26:20.822Z,7.69
2023-04-20T17:29:22.414Z,7.68
2023-04-20T17:32:24.285Z,7.69
2023-04-20T17:35:26.317Z,7.72
2023-04-20T17:38:27.842Z,7.75
2023-04-20T17:41:29.482Z,7.77
2023-04-20T17:44:31.292Z,7.79
2023-04-20T17:47:33.033Z,7.81
2023-04-20T17:50:34.831Z,7.82
2023-04-20T17:53:36.397Z,7.84
2023-04-20T17:56:37.973Z,7.84
2023-04-20T17:59:41.774Z,7.85
2023-04-20T18:02:43.492Z,7.84
2023-04-20T18:05:45.776Z,7.84
2023-04-20T18:08:47.354Z,7.87
2023-04-20T18:11:48.946Z,7.89
2023-04-20T18:14:50.806Z,7.92
2023-04-20T18:17:52.361Z,7.92
2023-04-20T18:20:54.071Z,7.92
2023-04-20T18:23:55.809Z,8.03
2023-04-20T18:26:57.393Z,8.04
2023-04-20T18:29:59.898Z,8.07
2023-04-20T18:33:01.891Z,8.09
2023-04-20T18:36:03.935Z,8.10
2023-04-20T18:39:06.282Z,8.13
2023-04-20T18:42:07.868Z,8.16
2023-04-20T18:45:09.792Z,8.18
2023-04-20T18:48:11.726Z,8.21
2023-04-20T18:51:13.516Z,8.22
2023-04-20T18:54:15.114Z,8.25
2023-04-20T18:57:16.720Z,8.27
2023-04-20T19:00:19.529Z,8.28
2023-04-20T19:03:21.366Z,8.31
2023-04-20T19:06:23.505Z,8.32
2023-04-20T19:09:26.036Z,8.36
2023-04-20T19:12:28.676Z,8.36
2023-04-20T19:15:30.727Z,8.35
2023-04-20T19:18:33.093Z,8.33
2023-04-20T19:21:34.889Z,8.29
2023-04-20T19:24:36.638Z,8.24
2023-04-20T19:27:38.470Z,8.20
2023-04-20T19:30:40.067Z,8.16
2023-04-20T19:33:42.060Z,8.13
2023-04-20T19:36:43.622Z,8.11
2023-04-20T19:39:45.179Z,8.11
2023-04-20T19:42:48.584Z,8.07
2023-04-20T19:45:50.192Z,8.00
2023-04-20T19:48:51.734Z,7.96
2023-04-20T19:51:53.291Z,7.90
2023-04-20T19:54:55.397Z,7.84
2023-04-20T19:57:57.227Z,7.79
2023-04-20T20:00:59.895Z,7.71
2023-04-20T20:04:02.838Z,7.65
2023-04-20T20:07:05.606Z,7.61
2023-04-20T20:10:09.319Z,7.56
2023-04-20T20:13:11.095Z,7.50
2023-04-20T20:16:12.776Z,7.44
2023-04-20T20:19:14.326Z,7.37
2023-04-20T20:22:16.609Z,7.34
2023-04-20T20:25:19.926Z,7.30
2023-04-20T20:28:21.529Z,7.26
2023-04-20T20:31:23.190Z,7.21
2023-04-20T20:34:24.950Z,7.18
2023-04-20T20:37:26.591Z,7.16
2023-04-20T20:40:28.214Z,7.13
2023-04-20T20:43:31.522Z,7.10
2023-04-20T20:46:33.241Z,7.07
2023-04-20T20:49:34.862Z,7.05
2023-04-20T20:52:36.599Z,7.08
2023-04-20T20:55:38.409Z,7.09
2023-04-20T20:58:39.933Z,7.08
2023-04-20T21:01:41.621Z,7.05
2023-04-20T21:04:43.197Z,7.01
2023-04-20T21:07:44.803Z,6.99
2023-04-20T21:10:46.338Z,6.97
2023-04-20T21:13:47.947Z,6.94
2023-04-20T21:16:49.548Z,6.93
2023-04-20T21:19:51.158Z,6.94
2023-04-20T21:22:52.849Z,6.94
2023-04-20T21:25:54.405Z,6.92
2023-04-20T21:28:55.929Z,6.91
2023-04-20T21:31:57.929Z,6.91
2023-04-20T21:34:59.463Z,6.91
2023-04-20T21:38:01.106Z,6.88
2023-04-20T21:41:02.781Z,6.85
2023-04-20T21:44:04.490Z,6.97
2023-04-20T21:47:06.023Z,7.08
2023-04-20T21:50:07.810Z,7.06
2023-04-20T21:53:09.379Z,6.99
2023-04-20T21:56:11.320Z,6.95
2023-04-20T21:59:14.311Z,6.90
2023-04-20T22:02:16.085Z,6.87
2023-04-20T22:05:17.791Z,6.83
2023-04-20T22:08:22.321Z,6.77
2023-04-20T22:11:24.256Z,6.73
2023-04-20T22:14:25.849Z,6.69
2023-04-20T22:17:29.797Z,6.65
2023-04-20T22:20:31.602Z,6.60
2023-04-20T22:23:33.296Z,6.58
2023-04-20T22:26:34.986Z,6.55
2023-04-20T22:29:36.524Z,6.50
2023-04-20T22:32:38.473Z,6.46
2023-04-20T22:35:40.151Z,6.41
2023-04-20T22:38:41.844Z,6.36
2023-04-20T22:41:43.426Z,6.34
2023-04-20T22:44:45.684Z,6.30
2023-04-20T22:47:47.465Z,6.27
2023-04-20T22:50:49.092Z,6.25
2023-04-20T22:53:50.670Z,6.24
2023-04-20T22:56:52.277Z,6.22
2023-04-20T22:59:53.801Z,6.19
2023-04-20T23:02:55.474Z,6.17
2023-04-20T23:05:57.688Z,6.13
2023-04-20T23:09:00.032Z,6.09
2023-04-20T23:12:03.650Z,6.06
2023-04-20T23:15:06.020Z,6.05
2023-04-20T23:18:07.603Z,6.00
2023-04-20T23:21:09.305Z,5.99
2023-04-20T23:24:10.819Z,5.98
2023-04-20T23:27:12.365Z,5.96
2023-04-20T23:30:14.082Z,5.91
2023-04-20T23:33:15.878Z,5.88
2023-04-20T23:36:17.536Z,5.86
2023-04-20T23:39:19.421Z,5.86
2023-04-20T23:42:21.847Z,5.84
2023-04-20T23:45:23.738Z,5.81
2023-04-20T23:48:25.397Z,5.77
2023-04-20T23:51:27.719Z,5.74
2023-04-20T23:54:30.648Z,5.72
2023-04-20T23:57:33.445Z,5.70
